createdAt,value
2022-10-15T00:01:06.154Z,99788.91
2022-10-15T00:03:37.171Z,99788.91
2022-10-15T00:06:06.793Z,99786.72
2022-10-15T00:08:35.308Z,99782.13
2022-10-15T00:11:06.569Z,99788.56
2022-10-15T00:13:35.289Z,99796.19
2022-10-15T00:16:04.036Z,99786.97
2022-10-15T00:18:31.948Z,99773.66
2022-10-15T00:20:59.942Z,99779.59
2022-10-15T00:23:27.924Z,99782.72
2022-10-15T00:26:05.474Z,99787.59
2022-10-15T00:28:34.452Z,99789.75
2022-10-15T00:31:08.360Z,99786.38
2022-10-15T00:33:36.726Z,99787.09
2022-10-15T00:36:07.331Z,99786.38
2022-10-15T00:38:35.633Z,99778.75
2022-10-15T00:41:06.507Z,99790.75
2022-10-15T00:43:39.853Z,99782.38
2022-10-15T00:46:17.414Z,99787.97
2022-10-15T00:48:49.156Z,99782.97
2022-10-15T00:51:20.369Z,99785.75
2022-10-15T00:53:50.823Z,99783.09
2022-10-15T00:56:23.201Z,99778.25
2022-10-15T00:58:54.298Z,99768.44
2022-10-15T01:01:23.229Z,99774.75
2022-10-15T01:03:51.403Z,99771.94
2022-10-15T01:06:19.818Z,99768.44
2022-10-15T01:08:48.185Z,99760.66
2022-10-15T01:11:29.237Z,99758.00
2022-10-15T01:14:08.505Z,99758.72
2022-10-15T01:16:46.133Z,99754.50
2022-10-15T01:19:28.999Z,99759.47
2022-10-15T01:22:05.307Z,99758.16
2022-10-15T01:25:04.495Z,99760.47
2022-10-15T01:27:37.797Z,99754.28
2022-10-15T01:30:30.247Z,99751.34
2022-10-15T01:33:06.986Z,99747.13
2022-10-15T01:35:45.309Z,99757.06
2022-10-15T01:38:24.018Z,99759.28
2022-10-15T01:40:56.484Z,99748.69
2022-10-15T01:43:31.281Z,99752.97
2022-10-15T01:46:30.308Z,99750.78
2022-10-15T01:49:06.147Z,99746.53
2022-10-15T01:51:36.363Z,99751.50
2022-10-15T01:54:06.903Z,99744.72
2022-10-15T01:56:38.299Z,99750.28
2022-10-15T01:59:07.517Z,99741.47
2022-10-15T02:01:36.905Z,99740.59
2022-10-15T02:04:19.638Z,99749.97
2022-10-15T02:06:55.018Z,99748.63
2022-10-15T02:09:33.802Z,99737.19
2022-10-15T02:12:11.432Z,99750.56
2022-10-15T02:14:45.671Z,99750.56
2022-10-15T02:17:18.461Z,99744.13
2022-10-15T02:19:54.185Z,99737.19
2022-10-15T02:22:27.721Z,99734.41
2022-10-15T02:24:59.382Z,99735.16
2022-10-15T02:27:29.118Z,99737.19
2022-10-15T02:29:58.491Z,99751.28
2022-10-15T02:32:29.444Z,99745.69
2022-10-15T02:34:57.948Z,99752.63
2022-10-15T02:37:30.308Z,99752.13
2022-10-15T02:39:58.343Z,99740.97
2022-10-15T02:42:27.062Z,99734.66
2022-10-15T02:44:55.042Z,99743.03
2022-10-15T02:47:22.905Z,99742.31
2022-10-15T02:49:52.295Z,99746.56
2022-10-15T02:52:20.607Z,99745.38
2022-10-15T02:54:48.815Z,99744.88
2022-10-15T02:57:16.994Z,99751.91
2022-10-15T02:59:46.493Z,99749.88
2022-10-15T03:02:16.898Z,99750.31
2022-10-15T03:04:47.754Z,99760.75
2022-10-15T03:07:17.826Z,99754.69
2022-10-15T03:09:46.096Z,99761.75
2022-10-15T03:12:15.956Z,99760.53
2022-10-15T03:14:44.122Z,99752.31
2022-10-15T03:17:12.070Z,99743.34
2022-10-15T03:19:40.813Z,99749.50
2022-10-15T03:22:08.864Z,99754.97
2022-10-15T03:24:46.731Z,99749.38
2022-10-15T03:27:14.656Z,99751.09
2022-10-15T03:29:43.247Z,99753.63
2022-10-15T03:32:11.167Z,99757.16
2022-10-15T03:34:39.502Z,99763.47
2022-10-15T03:37:08.498Z,99760.09
2022-10-15T03:39:37.713Z,99760.81
2022-10-15T03:42:09.031Z,99762.66
2022-10-15T03:44:45.876Z,99765.16
2022-10-15T03:47:17.714Z,99769.41
2022-10-15T03:49:50.184Z,99758.25
2022-10-15T03:52:18.735Z,99774.88
2022-10-15T03:54:48.514Z,99776.59
2022-10-15T03:57:21.000Z,99782.28
2022-10-15T03:59:57.199Z,99779.03
2022-10-15T04:02:28.370Z,99787.28
2022-10-15T04:04:58.013Z,99783.75
2022-10-15T04:07:26.690Z,99778.19
2022-10-15T04:09:54.734Z,99778.19
2022-10-15T04:12:29.090Z,99774.66
2022-10-15T04:14:57.606Z,99776.69
2022-10-15T04:17:25.635Z,99769.66
2022-10-15T04:19:53.655Z,99777.44
2022-10-15T04:22:23.168Z,99787.75
2022-10-15T04:24:56.424Z,99796.25
2022-10-15T04:27:30.540Z,99790.91
2022-10-15T04:30:09.449Z,99799.44
2022-10-15T04:32:41.134Z,99793.25
2022-10-15T04:35:10.270Z,99796.03
2022-10-15T04:37:52.293Z,99805.50
2022-10-15T04:40:20.791Z,99802.81
2022-10-15T04:42:50.320Z,99809.88
2022-10-15T04:45:18.587Z,99810.31
2022-10-15T04:47:47.538Z,99808.88
2022-10-15T04:50:17.724Z,99812.53
2022-10-15T04:53:04.018Z,99813.13
2022-10-15T04:55:36.303Z,99808.03
2022-10-15T04:58:05.682Z,99805.59
2022-10-15T05:00:34.195Z,99816.16
2022-10-15T05:03:24.913Z,99824.41
2022-10-15T05:06:01.549Z,99822.25
2022-10-15T05:08:30.060Z,99816.03
2022-10-15T05:11:26.165Z,99822.25
2022-10-15T05:13:58.241Z,99822.25
2022-10-15T05:16:28.717Z,99832.06
2022-10-15T05:19:01.539Z,99837.66
2022-10-15T05:21:32.935Z,99832.66
2022-10-15T05:24:05.599Z,99835.31
2022-10-15T05:27:03.301Z,99828.41
2022-10-15T05:29:35.151Z,99828.78
2022-10-15T05:32:03.105Z,99840.94
2022-10-15T05:34:31.195Z,99842.88
2022-10-15T05:37:07.466Z,99851.13
2022-10-15T05:39:35.405Z,99851.25
2022-10-15T05:42:03.432Z,99858.16
2022-10-15T05:44:46.505Z,99854.03
2022-10-15T05:47:15.329Z,99859.50
2022-10-15T05:49:43.260Z,99858.31
2022-10-15T05:52:19.061Z,99863.88
2022-10-15T05:55:08.867Z,99869.56
2022-10-15T05:57:36.863Z,99882.94
2022-10-15T06:00:08.994Z,99881.50
2022-10-15T06:02:40.057Z,99881.75
2022-10-15T06:05:08.433Z,99881.63
2022-10-15T06:07:36.720Z,99885.41
2022-10-15T06:10:06.590Z,99902.44
2022-10-15T06:12:38.303Z,99906.66
2022-10-15T06:15:08.536Z,99906.81
2022-10-15T06:17:36.532Z,99904.88
2022-10-15T06:20:04.839Z,99906.81
2022-10-15T06:22:32.817Z,99915.44
2022-10-15T06:25:00.785Z,99916.91
2022-10-15T06:27:29.248Z,99914.44
2022-10-15T06:29:57.537Z,99913.13
2022-10-15T06:32:26.968Z,99913.38
2022-10-15T06:34:55.156Z,99912.88
2022-10-15T06:37:23.476Z,99915.25
2022-10-15T06:39:52.275Z,99933.50
2022-10-15T06:42:20.242Z,99940.06
2022-10-15T06:44:49.291Z,99934.00
2022-10-15T06:47:18.314Z,99942.66
2022-10-15T06:49:49.816Z,99954.91
2022-10-15T06:52:17.960Z,99955.31
2022-10-15T06:54:45.989Z,99951.03
2022-10-15T06:57:15.175Z,99954.25
2022-10-15T06:59:43.180Z,99953.75
2022-10-15T07:02:11.392Z,99951.56
2022-10-15T07:04:39.416Z,99950.72
2022-10-15T07:07:08.854Z,99952.03
2022-10-15T07:09:36.900Z,99954.50
2022-10-15T07:12:06.499Z,99965.06
2022-10-15T07:14:38.700Z,99957.94
2022-10-15T07:17:09.608Z,99959.38
2022-10-15T07:19:37.828Z,99957.66
2022-10-15T07:22:05.843Z,99964.69
2022-10-15T07:24:35.152Z,99977.50
2022-10-15T07:27:08.143Z,99982.50
2022-10-15T07:29:46.381Z,99985.19
2022-10-15T07:32:14.512Z,99987.19
2022-10-15T07:34:42.462Z,99983.53
2022-10-15T07:37:10.477Z,99980.50
2022-10-15T07:39:40.995Z,99978.69
2022-10-15T07:42:09.738Z,99979.44
2022-10-15T07:44:37.927Z,99978.56
2022-10-15T07:47:11.122Z,99971.91
2022-10-15T07:49:39.162Z,99972.63
2022-10-15T07:52:08.554Z,99972.63
2022-10-15T07:54:36.665Z,99968.72
2022-10-15T07:57:06.986Z,99988.88
2022-10-15T07:59:35.339Z,99985.97
2022-10-15T08:02:03.377Z,99985.84
2022-10-15T08:04:31.734Z,99987.41
2022-10-15T08:06:59.800Z,99984.06
2022-10-15T08:09:27.919Z,99993.66
2022-10-15T08:11:56.009Z,99996.88
2022-10-15T08:14:25.411Z,100000.50
2022-10-15T08:16:53.392Z,99996.75
2022-10-15T08:19:21.525Z,99993.72
2022-10-15T08:21:50.240Z,99993.09
2022-10-15T08:24:18.382Z,99996.84
2022-10-15T08:26:46.566Z,99994.91
2022-10-15T08:29:14.699Z,99992.69
2022-10-15T08:31:44.172Z,99990.91
2022-10-15T08:34:14.460Z,100000.75
2022-10-15T08:36:42.428Z,100006.19
2022-10-15T08:39:10.577Z,100004.59
2022-10-15T08:41:46.202Z,100006.31
2022-10-15T08:44:22.211Z,100017.59
2022-10-15T08:46:55.177Z,100011.16
2022-10-15T08:49:33.837Z,100003.94
2022-10-15T08:52:09.818Z,100000.53
2022-10-15T08:54:37.792Z,100005.59
2022-10-15T08:57:15.396Z,100015.47
2022-10-15T08:59:52.623Z,100015.19
2022-10-15T09:02:26.691Z,100005.56
2022-10-15T09:05:02.721Z,100012.22
2022-10-15T09:07:37.719Z,100017.44
2022-10-15T09:10:16.594Z,100013.84
2022-10-15T09:12:51.240Z,100019.34
2022-10-15T09:15:25.393Z,100011.50
2022-10-15T09:17:57.273Z,100014.91
2022-10-15T09:20:33.744Z,100002.25
2022-10-15T09:23:02.079Z,100009.44
2022-10-15T09:25:36.001Z,100013.38
2022-10-15T09:28:10.900Z,100024.16
2022-10-15T09:30:47.712Z,100025.91
2022-10-15T09:33:24.936Z,100023.38
2022-10-15T09:35:58.674Z,100024.25
2022-10-15T09:38:37.834Z,100016.88
2022-10-15T09:41:21.275Z,100017.41
2022-10-15T09:43:52.102Z,100014.97
2022-10-15T09:46:20.933Z,100017.69
2022-10-15T09:48:57.200Z,100021.09
2022-10-15T09:51:28.866Z,100022.13
2022-10-15T09:54:04.304Z,100018.28
2022-10-15T09:56:37.142Z,100022.22
2022-10-15T09:59:08.821Z,100022.34
2022-10-15T10:17:16.478Z,100036.63
2022-10-15T10:19:45.404Z,100042.69
2022-10-15T10:26:07.547Z,100040.84
2022-10-15T10:28:44.168Z,100045.09
2022-10-15T10:34:16.750Z,100045.06
2022-10-15T10:36:51.013Z,100046.38
2022-10-15T10:43:38.214Z,100042.09
2022-10-15T10:46:54.909Z,100045.91
2022-10-15T10:49:31.917Z,100039.19
2022-10-15T10:52:02.156Z,100049.59
2022-10-15T10:54:31.146Z,100040.75
2022-10-15T10:57:01.609Z,100038.41
2022-10-15T10:59:38.900Z,100038.06
2022-10-15T11:02:12.139Z,100047.78
2022-10-15T11:04:42.013Z,100045.34
2022-10-15T11:10:27.565Z,100037.50
2022-10-15T11:13:07.114Z,100023.81
2022-10-15T11:15:45.892Z,100026.63
2022-10-15T11:18:51.885Z,100017.00
2022-10-15T11:21:36.594Z,100015.81
2022-10-15T11:24:13.593Z,100013.91
2022-10-15T11:27:11.212Z,100019.81
2022-10-15T11:29:52.415Z,100012.63
2022-10-15T11:32:54.345Z,100013.81
2022-10-15T11:35:52.885Z,100011.13
2022-10-15T11:38:36.799Z,100006.44
2022-10-15T11:41:28.024Z,100006.38
2022-10-15T11:44:09.667Z,99998.72
2022-10-15T11:46:46.666Z,100004.31
2022-10-15T11:49:31.123Z,100006.69
2022-10-15T11:52:21.065Z,99999.63
2022-10-15T11:55:01.649Z,99989.84
2022-10-15T11:57:33.993Z,99988.38
2022-10-15T12:00:11.056Z,99991.03
2022-10-15T12:02:41.389Z,99991.09
2022-10-15T12:05:16.552Z,99987.19
2022-10-15T12:07:47.130Z,99977.00
2022-10-15T12:10:37.921Z,99976.47
2022-10-15T12:13:13.698Z,99973.22
2022-10-15T12:15:49.801Z,99977.75
2022-10-15T12:18:24.969Z,99977.69
2022-10-15T12:20:55.218Z,99975.91
2022-10-15T12:23:26.218Z,99976.81
2022-10-15T12:25:57.696Z,99966.97
2022-10-15T12:28:30.343Z,99967.81
2022-10-15T12:31:02.772Z,99964.78
2022-10-15T12:33:35.825Z,99965.88
2022-10-15T12:36:09.829Z,99967.19
2022-10-15T12:38:41.357Z,99968.78
2022-10-15T12:41:13.435Z,99964.81
2022-10-15T12:43:44.475Z,99960.94
2022-10-15T12:46:14.614Z,99967.88
2022-10-15T12:48:45.131Z,99964.25
2022-10-15T12:51:41.504Z,99960.22
2022-10-15T12:54:38.749Z,99962.28
2022-10-15T12:57:44.888Z,99945.78
2022-10-15T13:00:35.560Z,99943.28
2022-10-15T13:03:32.175Z,99955.25
2022-10-15T13:06:16.049Z,99958.38
2022-10-15T13:08:46.922Z,99956.16
2022-10-15T13:11:23.874Z,99954.50
2022-10-15T13:13:56.506Z,99948.00
2022-10-15T13:16:26.777Z,99942.44
2022-10-15T13:18:57.437Z,99940.88
2022-10-15T13:21:48.964Z,99940.28
2022-10-15T13:24:20.396Z,99937.47
2022-10-15T13:26:49.044Z,99932.91
2022-10-15T13:29:20.895Z,99947.03
2022-10-15T13:31:52.156Z,99955.44
2022-10-15T13:34:28.284Z,99944.91
2022-10-15T13:36:59.413Z,99947.13
2022-10-15T13:42:15.723Z,99941.69
2022-10-15T13:44:45.185Z,99946.94
2022-10-15T13:47:32.262Z,99951.16
2022-10-15T13:50:24.607Z,99947.22
2022-10-15T13:52:56.931Z,99964.28
2022-10-15T13:55:29.015Z,99968.31
2022-10-15T13:58:02.924Z,99973.50
2022-10-15T14:00:34.570Z,99970.56
2022-10-15T14:03:26.826Z,99969.34
2022-10-15T14:05:56.728Z,99952.94
2022-10-15T14:08:28.214Z,99958.88
2022-10-15T14:10:59.686Z,99960.56
2022-10-15T14:13:29.460Z,99967.75
2022-10-15T14:16:14.285Z,99975.25
2022-10-15T14:18:49.235Z,99969.06
2022-10-15T14:21:21.211Z,99965.94
2022-10-15T14:23:51.190Z,99958.50
2022-10-15T14:26:25.310Z,99971.88
2022-10-15T14:28:55.895Z,99981.03
2022-10-15T14:31:32.553Z,99984.66
2022-10-15T14:34:02.247Z,99970.75
2022-10-15T14:36:31.591Z,99973.91
2022-10-15T14:39:14.927Z,99971.72
2022-10-15T14:41:56.323Z,99974.78
2022-10-15T14:44:24.864Z,99966.38
2022-10-15T14:47:01.205Z,99972.25
2022-10-15T14:49:33.116Z,99974.34
2022-10-15T14:52:06.983Z,99981.13
2022-10-15T14:54:40.521Z,99981.50
2022-10-15T14:57:19.947Z,99982.19
2022-10-15T14:59:48.302Z,99983.66
2022-10-15T15:02:17.923Z,99990.72
2022-10-15T15:05:05.044Z,99975.19
2022-10-15T15:07:35.077Z,99986.28
2022-10-15T15:10:03.652Z,99977.63
2022-10-15T15:12:32.617Z,99982.88
2022-10-15T15:15:07.409Z,99992.72
2022-10-15T15:17:35.777Z,100002.69
2022-10-15T15:20:06.674Z,99999.53
2022-10-15T15:22:37.338Z,99988.59
2022-10-15T15:25:16.260Z,100000.50
2022-10-15T15:27:44.463Z,99992.47
2022-10-15T15:30:19.558Z,99988.22
2022-10-15T15:32:49.106Z,99981.75
2022-10-15T15:35:23.759Z,99978.97
2022-10-15T15:37:52.695Z,99991.06
2022-10-15T15:40:20.898Z,99981.31
2022-10-15T15:42:50.557Z,99975.84
2022-10-15T15:45:21.164Z,99991.16
2022-10-15T15:47:49.698Z,99986.81
2022-10-15T15:50:20.926Z,99985.00
2022-10-15T15:52:50.502Z,99985.97
2022-10-15T15:55:18.716Z,99984.75
2022-10-15T15:57:47.948Z,99979.78
2022-10-15T16:00:17.245Z,99995.34
2022-10-15T16:02:46.519Z,99989.50
2022-10-15T16:05:17.794Z,99996.22
2022-10-15T16:07:47.119Z,99993.53
2022-10-15T16:10:17.196Z,99995.28
2022-10-15T16:12:47.482Z,100002.31
2022-10-15T16:15:16.011Z,100007.78
2022-10-15T16:17:44.391Z,100005.63
2022-10-15T16:20:13.401Z,100010.38
2022-10-15T16:22:42.725Z,100010.84
2022-10-15T16:25:11.621Z,100012.66
2022-10-15T16:27:41.311Z,100022.53
2022-10-15T16:30:13.175Z,100012.44
2022-10-15T16:32:41.898Z,100020.44
2022-10-15T16:35:10.597Z,100037.22
2022-10-15T16:37:38.831Z,100026.75
2022-10-15T16:40:08.878Z,100023.13
2022-10-15T16:42:37.343Z,100022.53
2022-10-15T16:45:08.361Z,100023.00
2022-10-15T16:47:37.459Z,100033.81
2022-10-15T16:50:07.268Z,100033.94
2022-10-15T16:52:36.197Z,100039.03
2022-10-15T16:55:05.470Z,100033.09
2022-10-15T16:57:34.043Z,100050.72
2022-10-15T17:00:02.152Z,100046.34
2022-10-15T17:02:32.347Z,100044.63
2022-10-15T17:05:00.490Z,100055.22
2022-10-15T17:07:29.446Z,100056.56
2022-10-15T17:09:58.449Z,100059.25
2022-10-15T17:12:28.353Z,100059.47
2022-10-15T17:14:57.138Z,100060.56
2022-10-15T17:17:25.239Z,100074.09
2022-10-15T17:19:55.372Z,100078.22
2022-10-15T17:22:25.276Z,100078.94
2022-10-15T17:24:54.084Z,100083.22
2022-10-15T17:27:22.256Z,100080.41
2022-10-15T17:29:50.441Z,100084.44
2022-10-15T17:32:18.522Z,100079.78
2022-10-15T17:34:47.010Z,100082.59
2022-10-15T17:37:17.032Z,100087.94
2022-10-15T17:39:45.306Z,100083.56
2022-10-15T17:42:15.860Z,100079.69
2022-10-15T17:44:44.149Z,100085.03
2022-10-15T17:47:13.362Z,100090.75
2022-10-15T17:49:41.835Z,100093.78
2022-10-15T17:52:11.194Z,100094.13
2022-10-15T17:54:41.531Z,100091.56
2022-10-15T17:57:09.903Z,100098.16
2022-10-15T17:59:40.596Z,100094.88
2022-10-15T18:02:10.617Z,100101.75
2022-10-15T18:04:40.770Z,100100.44
2022-10-15T18:07:09.458Z,100108.06
2022-10-15T18:09:37.709Z,100102.03
2022-10-15T18:12:07.702Z,100112.94
2022-10-15T18:14:36.060Z,100114.28
2022-10-15T18:17:05.839Z,100111.94
2022-10-15T18:19:34.097Z,100109.75
2022-10-15T18:22:02.682Z,100115.72
2022-10-15T18:24:31.103Z,100118.16
2022-10-15T18:27:02.189Z,100127.84
2022-10-15T18:29:32.111Z,100125.34
2022-10-15T18:32:00.382Z,100131.66
2022-10-15T18:34:33.223Z,100131.50
2022-10-15T18:37:02.154Z,100149.50
2022-10-15T18:39:31.111Z,100142.13
2022-10-15T18:41:59.721Z,100145.16
2022-10-15T18:44:29.609Z,100146.97
2022-10-15T18:46:59.399Z,100133.59
2022-10-15T18:49:27.585Z,100144.78
2022-10-15T18:51:56.234Z,100149.16
2022-10-15T18:54:38.734Z,100148.91
2022-10-15T18:57:06.966Z,100154.50
2022-10-15T18:59:35.095Z,100157.16
2022-10-15T19:02:04.994Z,100168.34
2022-10-15T19:04:32.943Z,100162.13
2022-10-15T19:07:04.227Z,100157.84
2022-10-15T19:09:54.850Z,100167.16
2022-10-15T19:12:34.903Z,100157.81
2022-10-15T19:15:17.421Z,100155.59
2022-10-15T19:17:57.034Z,100154.16
2022-10-15T19:20:25.473Z,100151.69
2022-10-15T19:22:53.826Z,100153.59
2022-10-15T19:25:22.600Z,100149.75
2022-10-15T19:27:53.917Z,100151.09
2022-10-15T19:30:22.142Z,100157.41
2022-10-15T19:32:51.795Z,100157.81
2022-10-15T19:35:20.390Z,100167.78
2022-10-15T19:37:49.026Z,100172.03
2022-10-15T19:40:17.774Z,100165.59
2022-10-15T19:42:47.956Z,100172.91
2022-10-15T19:45:16.182Z,100180.69
2022-10-15T19:47:46.978Z,100182.75
2022-10-15T19:50:16.668Z,100186.88
2022-10-15T19:52:47.243Z,100185.56
2022-10-15T19:55:15.628Z,100188.22
2022-10-15T19:57:44.046Z,100184.69
2022-10-15T20:00:13.987Z,100196.47
2022-10-15T20:02:42.185Z,100205.72
2022-10-15T20:05:11.185Z,100217.38
2022-10-15T20:07:40.755Z,100215.16
2022-10-15T20:10:10.296Z,100220.75
2022-10-15T20:12:38.572Z,100227.81
2022-10-15T20:15:08.625Z,100218.44
2022-10-15T20:17:37.122Z,100228.09
2022-10-15T20:20:07.332Z,100227.69
2022-10-15T20:22:35.644Z,100229.63
2022-10-15T20:25:08.049Z,100231.56
2022-10-15T20:27:36.177Z,100242.13
2022-10-15T20:30:05.067Z,100245.53
2022-10-15T20:32:35.817Z,100251.84
2022-10-15T20:35:05.748Z,100250.38
2022-10-15T20:37:34.078Z,100255.97
2022-10-15T20:40:03.094Z,100249.50
2022-10-15T20:42:37.534Z,100245.25
2022-10-15T20:45:06.888Z,100247.31
2022-10-15T20:47:38.213Z,100241.31
2022-10-15T20:50:12.545Z,100241.06
2022-10-15T20:52:43.414Z,100239.59
2022-10-15T20:55:12.388Z,100245.03
2022-10-15T20:57:43.047Z,100244.63
2022-10-15T21:00:12.577Z,100256.88
2022-10-15T21:02:41.672Z,100255.84
2022-10-15T21:05:10.897Z,100254.84
2022-10-15T21:07:41.262Z,100264.44
2022-10-15T21:10:10.453Z,100265.72
2022-10-15T21:12:39.079Z,100278.06
2022-10-15T21:15:10.231Z,100258.19
2022-10-15T21:17:38.493Z,100261.13
2022-10-15T21:20:08.238Z,100253.50
2022-10-15T21:22:36.469Z,100243.38
2022-10-15T21:25:06.412Z,100249.44
2022-10-15T21:27:34.932Z,100260.31
2022-10-15T21:30:03.390Z,100268.84
2022-10-15T21:32:33.467Z,100261.19
2022-10-15T21:35:03.613Z,100260.47
2022-10-15T21:37:35.224Z,100259.31
2022-10-15T21:40:04.430Z,100266.81
2022-10-15T21:42:32.817Z,100267.28
2022-10-15T21:45:01.228Z,100264.50
2022-10-15T21:47:29.717Z,100270.50
2022-10-15T21:50:00.751Z,100286.69
2022-10-15T21:52:29.030Z,100294.63
2022-10-15T21:54:57.216Z,100290.78
2022-10-15T21:57:51.315Z,100292.53
2022-10-15T22:00:19.800Z,100296.59
2022-10-15T22:02:52.091Z,100292.50
2022-10-15T22:05:21.716Z,100305.28
2022-10-15T22:07:49.857Z,100307.94
2022-10-15T22:10:18.712Z,100307.19
2022-10-15T22:12:52.158Z,100310.84
2022-10-15T22:15:21.779Z,100308.06
2022-10-15T22:17:49.947Z,100309.66
2022-10-15T22:20:23.010Z,100311.13
2022-10-15T22:22:54.686Z,100307.31
2022-10-15T22:25:25.721Z,100308.22
2022-10-15T22:27:53.929Z,100307.59
2022-10-15T22:30:22.440Z,100303.50
2022-10-15T22:32:50.779Z,100308.22
2022-10-15T22:35:19.381Z,100312.47
2022-10-15T22:37:48.038Z,100318.91
2022-10-15T22:40:18.755Z,100308.63
2022-10-15T22:42:48.536Z,100318.47
2022-10-15T22:45:17.051Z,100295.97
2022-10-15T22:47:45.719Z,100296.13
2022-10-15T22:50:13.824Z,100310.97
2022-10-15T22:52:42.371Z,100311.22
2022-10-15T22:55:10.742Z,100315.91
2022-10-15T22:57:40.263Z,100317.28
2022-10-15T23:00:10.368Z,100312.72
2022-10-15T23:02:38.519Z,100318.75
2022-10-15T23:05:06.866Z,100306.53
2022-10-15T23:07:35.381Z,100302.88
2022-10-15T23:10:03.958Z,100307.75
2022-10-15T23:12:32.398Z,100313.16
2022-10-15T23:15:02.406Z,100307.31
2022-10-15T23:17:31.548Z,100325.38
2022-10-15T23:20:00.164Z,100326.09
2022-10-15T23:22:28.409Z,100330.09
2022-10-15T23:24:56.972Z,100327.16
2022-10-15T23:27:26.672Z,100334.97
2022-10-15T23:30:14.001Z,100341.41
2022-10-15T23:32:51.179Z,100342.56
2022-10-15T23:35:21.359Z,100356.97
2022-10-15T23:37:51.160Z,100343.75
2022-10-15T23:40:19.619Z,100351.22
2022-10-15T23:42:48.002Z,100351.25
2022-10-15T23:45:16.501Z,100360.38
2022-10-15T23:47:44.867Z,100347.59
2022-10-15T23:50:14.784Z,100333.03
2022-10-15T23:52:42.962Z,100337.28
2022-10-15T23:55:11.101Z,100345.84
2022-10-15T23:57:39.767Z,100349.34
